Time;durP1;ratioP1;P1;durP2;ratioP2;P2;SDS_P1;SDS_P2;PMS_P1;PMS_P2;Temp;Humidity;BMP_temperature;BMP_pressure;BME280_temperature;BME280_humidity;BME280_pressure;Samples;Min_cycle;Max_cycle;Signal;HPM_P1;HPM_P2
2021/08/12 00:01:36;;;;;;;1.37;0.80;;;;;;;18.90;61.33;99439.55;1733673;80;21147;-54
2021/08/12 00:04:02;;;;;;;1.10;0.90;;;;;;;18.89;61.47;99435.59;1727494;81;21455;-55
2021/08/12 00:06:28;;;;;;;1.07;0.80;;;;;;;18.90;61.59;99434.60;1729442;80;21112;-54
2021/08/12 00:08:55;;;;;;;1.92;0.90;;;;;;;18.91;61.56;99437.70;1731987;80;21738;-55
2021/08/12 00:11:22;;;;;;;1.77;0.90;;;;;;;18.91;61.63;99434.97;1731640;80;21085;-55
2021/08/12 00:13:48;;;;;;;2.20;0.80;;;;;;;18.90;61.69;99436.83;1730812;80;21559;-55
2021/08/12 00:16:14;;;;;;;1.98;0.90;;;;;;;18.87;61.79;99434.39;1727428;80;21520;-54
2021/08/12 00:18:42;;;;;;;3.33;0.93;;;;;;;18.83;61.89;99432.05;1727813;80;21112;-52
2021/08/12 00:21:09;;;;;;;2.10;0.80;;;;;;;18.80;62.08;99439.13;1731617;80;21064;-53
2021/08/12 00:23:35;;;;;;;1.10;0.90;;;;;;;18.76;62.18;99441.77;1730638;80;21084;-54
2021/08/12 00:26:03;;;;;;;1.77;0.70;;;;;;;18.72;62.29;99442.52;1729134;81;21056;-53
2021/08/12 00:28:29;;;;;;;1.30;0.70;;;;;;;18.69;62.44;99442.80;1709060;81;21132;-52
2021/08/12 00:30:56;;;;;;;1.85;0.72;;;;;;;18.67;62.57;99440.70;1729886;80;21335;-53
2021/08/12 00:33:23;;;;;;;1.25;0.90;;;;;;;18.67;62.68;99439.83;1706407;80;21376;-56
2021/08/12 00:35:51;;;;;;;2.17;0.90;;;;;;;18.66;62.82;99448.51;1731734;80;21073;-53
2021/08/12 00:38:18;;;;;;;1.70;1.05;;;;;;;18.64;62.94;99444.17;1740314;80;21118;-54
2021/08/12 00:40:44;;;;;;;1.82;1.00;;;;;;;18.62;63.03;99438.02;1730647;80;21053;-54
2021/08/12 00:43:11;;;;;;;1.55;0.85;;;;;;;18.57;63.09;99436.16;1730447;80;21053;-55
2021/08/12 00:45:38;;;;;;;2.22;1.27;;;;;;;18.52;63.20;99431.96;1731084;80;21021;-54
2021/08/12 00:48:05;;;;;;;1.20;1.00;;;;;;;18.48;63.38;99433.70;1737389;80;21970;-56
2021/08/12 00:50:34;;;;;;;2.85;0.90;;;;;;;18.41;63.55;99446.99;1727286;80;21073;-54
2021/08/12 00:53:02;;;;;;;3.10;0.90;;;;;;;18.35;63.83;99445.30;1722746;80;21366;-53
2021/08/12 00:55:28;;;;;;;4.60;0.85;;;;;;;18.29;64.04;99452.63;1731474;80;20950;-53
2021/08/12 00:57:55;;;;;;;2.02;0.90;;;;;;;18.26;64.26;99456.97;1727453;80;20978;-53
2021/08/12 01:00:21;;;;;;;2.22;1.30;;;;;;;18.23;64.40;99460.80;1721730;80;21547;-54
2021/08/12 01:02:49;;;;;;;1.20;1.00;;;;;;;18.21;64.54;99468.23;1725297;80;21408;-53
2021/08/12 01:05:16;;;;;;;1.98;0.90;;;;;;;18.20;64.64;99468.39;1731242;80;21561;-53
2021/08/12 01:07:51;;;;;;;1.35;1.25;;;;;;;18.19;64.73;99468.89;1721841;82;21358;-52
2021/08/12 01:10:31;;;;;;;1.20;0.90;;;;;;;18.19;64.76;99468.02;1724376;80;21396;-52
2021/08/12 01:37:19;;;;;;;1.42;0.90;;;;;;;17.91;65.94;99482.57;1724339;80;21125;-53
2021/08/12 01:39:46;;;;;;;1.00;0.90;;;;;;;17.85;66.14;99489.02;1722721;80;21049;-53
2021/08/12 01:42:12;;;;;;;2.80;1.05;;;;;;;17.81;66.32;99484.80;1722451;80;21057;-52
2021/08/12 01:44:40;;;;;;;1.10;0.85;;;;;;;17.79;66.49;99483.56;1720848;80;21102;-54
2021/08/12 01:47:08;;;;;;;7.95;1.02;;;;;;;17.80;66.62;99480.34;1723929;80;21702;-53
2021/08/12 01:49:35;;;;;;;3.05;0.98;;;;;;;17.80;66.81;99487.16;1680830;82;21117;-54
2021/08/12 01:52:03;;;;;;;1.90;1.00;;;;;;;17.80;66.90;99489.38;1692104;81;21093;-57
2021/08/12 01:54:31;;;;;;;2.75;0.98;;;;;;;17.83;66.97;99489.14;1735438;80;20949;-55
2021/08/12 01:56:58;;;;;;;1.70;1.35;;;;;;;17.83;67.08;99491.86;1730611;80;21087;-56
2021/08/12 01:59:25;;;;;;;2.92;0.90;;;;;;;17.83;67.13;99486.42;1727661;80;21041;-58
2021/08/12 02:01:53;;;;;;;4.17;1.30;;;;;;;17.81;67.21;99485.67;1730525;80;21149;-57
2021/08/12 02:04:20;;;;;;;2.42;1.10;;;;;;;17.78;67.37;99481.00;1731174;80;21028;-57
2021/08/12 02:06:48;;;;;;;1.25;0.90;;;;;;;17.74;67.53;99483.09;1728604;80;21513;-56
2021/08/12 02:09:14;;;;;;;1.40;0.90;;;;;;;17.72;67.66;99483.21;1729928;80;21037;-56
2021/08/12 02:11:43;;;;;;;1.80;1.07;;;;;;;17.73;67.78;99492.24;1727939;80;21535;-55
2021/08/12 02:14:09;;;;;;;2.15;1.10;;;;;;;17.73;67.83;99485.44;1730125;80;21073;-55
2021/08/12 02:16:36;;;;;;;1.85;1.00;;;;;;;17.74;67.96;99489.89;1735339;80;21535;-54
2021/08/12 02:19:05;;;;;;;1.22;0.98;;;;;;;17.73;67.97;99489.52;1730566;80;21495;-54
2021/08/12 02:21:36;;;;;;;1.40;1.00;;;;;;;17.71;68.09;99498.30;1732770;80;21120;-55
2021/08/12 02:24:17;;;;;;;2.27;1.00;;;;;;;17.67;68.19;99504.51;1734223;80;21320;-53
2021/08/12 02:26:47;;;;;;;3.25;1.30;;;;;;;17.63;68.32;99502.14;1731363;80;20948;-56
2021/08/12 02:29:14;;;;;;;1.00;0.80;;;;;;;17.57;68.45;99506.70;1707629;81;21100;-54
2021/08/12 02:31:44;;;;;;;8.00;1.62;;;;;;;17.53;68.62;99509.28;1727862;80;21108;-55
2021/08/12 02:34:11;;;;;;;1.77;1.10;;;;;;;17.49;68.77;99508.67;1731648;80;20918;-54
2021/08/12 02:36:37;;;;;;;2.17;0.82;;;;;;;17.47;68.95;99515.22;1732002;80;21140;-55
2021/08/12 02:39:05;;;;;;;3.22;1.07;;;;;;;17.44;69.09;99520.94;1729295;80;21903;-54
2021/08/12 02:41:32;;;;;;;1.87;0.90;;;;;;;17.43;69.23;99526.00;1730791;80;21581;-54
2021/08/12 02:43:59;;;;;;;3.25;1.07;;;;;;;17.41;69.35;99523.39;1740537;80;21109;-54
2021/08/12 02:46:26;;;;;;;4.05;1.20;;;;;;;17.42;69.38;99522.41;1730063;80;21065;-54
2021/08/12 02:48:53;;;;;;;1.27;1.15;;;;;;;17.41;69.40;99520.67;1729528;80;21096;-54
2021/08/12 02:51:19;;;;;;;3.47;1.10;;;;;;;17.39;69.45;99523.51;1708094;80;21107;-54
2021/08/12 02:53:46;;;;;;;1.82;0.93;;;;;;;17.37;69.50;99530.05;1697083;82;21064;-54
2021/08/12 02:56:12;;;;;;;1.60;0.90;;;;;;;17.34;69.60;99527.11;1680711;83;21155;-54
2021/08/12 02:58:41;;;;;;;3.25;0.90;;;;;;;17.33;69.73;99521.29;1656824;83;21728;-54
2021/08/12 03:01:08;;;;;;;1.37;1.00;;;;;;;17.35;69.80;99525.25;1695863;82;21061;-54
2021/08/12 03:03:36;;;;;;;1.92;1.10;;;;;;;17.35;69.83;99528.80;1655520;83;21157;-55
2021/08/12 03:06:02;;;;;;;1.40;1.25;;;;;;;17.35;69.83;99526.09;1698095;82;21076;-54
2021/08/12 03:08:30;;;;;;;2.22;1.12;;;;;;;17.36;69.85;99528.31;1692571;82;21072;-54
2021/08/12 03:10:56;;;;;;;2.70;1.47;;;;;;;17.33;69.88;99530.81;1685951;83;21128;-54
2021/08/12 03:13:23;;;;;;;1.17;1.07;;;;;;;17.29;69.96;99527.95;1702504;82;21073;-54
2021/08/12 03:15:50;;;;;;;1.85;1.20;;;;;;;17.29;70.01;99531.16;1703631;82;21143;-54
2021/08/12 03:18:17;;;;;;;5.67;1.20;;;;;;;17.28;70.06;99530.29;1676313;82;21089;-56
2021/08/12 03:20:43;;;;;;;3.75;1.10;;;;;;;17.29;70.11;99536.59;1677296;82;21161;-57
2021/08/12 03:23:10;;;;;;;1.12;1.00;;;;;;;17.31;70.20;99535.50;1687579;82;21125;-56
2021/08/12 03:25:37;;;;;;;1.87;1.42;;;;;;;17.34;70.19;99531.19;1676177;84;21182;-57
2021/08/12 03:28:04;;;;;;;3.90;0.98;;;;;;;17.36;70.17;99529.67;1682260;83;22039;-56
2021/08/12 03:30:30;;;;;;;1.10;1.00;;;;;;;17.37;70.17;99535.50;1683330;82;21080;-57
2021/08/12 03:32:57;;;;;;;2.52;1.67;;;;;;;17.37;70.18;99535.50;1678756;83;21179;-56
2021/08/12 03:35:24;;;;;;;1.42;1.10;;;;;;;17.36;70.19;99539.20;1678454;83;21075;-57
2021/08/12 03:37:50;;;;;;;3.37;1.07;;;;;;;17.34;70.24;99546.64;1694969;82;21143;-55
2021/08/12 03:40:16;;;;;;;1.55;1.45;;;;;;;17.35;70.27;99542.94;1663731;83;23364;-56
2021/08/12 03:42:43;;;;;;;1.77;1.00;;;;;;;17.35;70.30;99542.94;1700958;82;21316;-57
2021/08/12 03:45:10;;;;;;;1.17;1.07;;;;;;;17.35;70.36;99546.49;1679829;82;21453;-57
2021/08/12 03:47:37;;;;;;;4.60;1.10;;;;;;;17.38;70.35;99545.39;1677130;82;21391;-56
2021/08/12 03:50:04;;;;;;;2.02;1.12;;;;;;;17.39;70.29;99544.41;1679709;82;21063;-56
2021/08/12 03:52:30;;;;;;;1.20;1.00;;;;;;;17.40;70.26;99547.02;1680685;82;21744;-57
2021/08/12 03:54:57;;;;;;;1.92;1.10;;;;;;;17.42;70.23;99551.47;1675411;83;20934;-57
2021/08/12 03:57:23;;;;;;;1.30;1.20;;;;;;;17.41;70.21;99556.05;1676844;83;20987;-57
2021/08/12 03:59:50;;;;;;;1.30;1.20;;;;;;;17.43;70.21;99558.65;1687755;83;21416;-57
2021/08/12 04:02:16;;;;;;;3.95;1.00;;;;;;;17.44;70.19;99565.30;1675712;83;21531;-56
2021/08/12 04:04:42;;;;;;;1.90;0.90;;;;;;;17.46;70.25;99567.41;1680673;83;21129;-57
2021/08/12 04:07:09;;;;;;;2.62;1.17;;;;;;;17.49;70.21;99567.67;1676231;83;20958;-56
2021/08/12 04:09:35;;;;;;;1.50;1.10;;;;;;;17.51;70.10;99568.43;1694166;83;20962;-55
2021/08/12 04:12:03;;;;;;;1.27;1.00;;;;;;;17.53;70.10;99573.23;1718992;81;21387;-56
2021/08/12 04:14:29;;;;;;;3.55;1.00;;;;;;;17.57;70.00;99570.65;1725603;81;21516;-56
2021/08/12 04:16:56;;;;;;;2.17;1.20;;;;;;;17.63;69.92;99572.41;1721478;81;21413;-57
2021/08/12 04:19:25;;;;;;;1.05;0.90;;;;;;;17.69;69.76;99577.88;1719361;81;21401;-57
2021/08/12 04:21:51;;;;;;;1.82;0.90;;;;;;;17.72;69.57;99575.77;1708785;81;21022;-56
2021/08/12 04:24:17;;;;;;;5.17;0.93;;;;;;;17.75;69.47;99578.74;1718885;81;20872;-55
2021/08/12 04:26:44;;;;;;;1.72;1.30;;;;;;;17.79;69.31;99573.41;1732500;81;20946;-55
2021/08/12 04:29:10;;;;;;;2.60;1.20;;;;;;;17.89;69.10;99587.14;1716862;81;21480;-55
2021/08/12 04:31:37;;;;;;;5.10;1.00;;;;;;;17.99;68.81;99584.92;1717873;81;20901;-57
2021/08/12 04:34:05;;;;;;;1.20;1.00;;;;;;;18.09;68.54;99585.91;1718312;81;20968;-55
2021/08/12 04:36:31;;;;;;;1.20;1.00;;;;;;;18.21;68.17;99589.47;1716237;81;21050;-55
2021/08/12 04:38:58;;;;;;;2.87;1.10;;;;;;;18.27;67.76;99588.11;1713033;81;21038;-54
2021/08/12 04:41:25;;;;;;;1.62;1.32;;;;;;;18.27;67.62;99586.75;1674714;83;22035;-54
2021/08/12 04:43:51;;;;;;;3.60;1.00;;;;;;;18.34;67.37;99592.06;1717337;81;21611;-54
2021/08/12 04:46:20;;;;;;;1.35;0.90;;;;;;;18.33;67.29;99588.96;1717053;81;20938;-55
2021/08/12 04:48:48;;;;;;;3.05;1.07;;;;;;;18.31;67.09;99594.53;1729793;81;20903;-55
2021/08/12 04:51:14;;;;;;;10.82;3.10;;;;;;;18.32;67.21;99592.67;1716230;81;21830;-54
2021/08/12 04:53:40;;;;;;;3.37;1.02;;;;;;;18.28;67.78;99594.81;1734609;80;21134;-52
2021/08/12 04:56:07;;;;;;;2.02;1.15;;;;;;;18.24;68.02;99601.98;1739720;80;21082;-54
2021/08/12 04:58:34;;;;;;;2.95;1.10;;;;;;;18.21;68.29;99606.30;1731217;80;21033;-54
2021/08/12 05:01:01;;;;;;;1.90;1.00;;;;;;;18.22;68.40;99606.68;1730812;80;21046;-54
2021/08/12 05:06:14;;;;;;;1.40;1.00;;;;;;;18.34;68.64;99609.28;1787126;78;26543;-56
2021/08/12 05:08:35;;;;;;;1.37;1.07;;;;;;;18.34;68.66;99604.32;1753072;80;21188;-56
2021/08/12 05:11:08;;;;;;;1.95;1.12;;;;;;;18.40;68.45;99606.53;1736781;80;22363;-57
2021/08/12 05:13:35;;;;;;;5.92;1.10;;;;;;;18.44;68.28;99613.48;1744296;80;21056;-58
2021/08/12 05:16:02;;;;;;;1.30;1.00;;;;;;;18.48;67.92;99619.89;1733516;80;20969;-57
2021/08/12 05:18:28;;;;;;;2.77;0.98;;;;;;;18.50;67.83;99610.23;1749021;80;21620;-57
2021/08/12 05:20:55;;;;;;;1.92;0.93;;;;;;;18.52;67.64;99614.58;1757466;80;21412;-59
2021/08/12 05:23:22;;;;;;;1.57;0.90;;;;;;;18.56;67.54;99615.66;1740015;80;21112;-59
2021/08/12 05:25:48;;;;;;;1.12;1.02;;;;;;;18.59;67.35;99614.09;1745649;80;21027;-57
2021/08/12 05:28:15;;;;;;;1.50;0.80;;;;;;;18.66;67.41;99609.84;1741067;80;21116;-59
2021/08/12 05:30:41;;;;;;;2.15;0.90;;;;;;;18.75;67.20;99615.89;1749296;80;21235;-60
2021/08/12 05:33:08;;;;;;;2.25;0.80;;;;;;;18.81;66.83;99609.92;1712744;80;21090;-61
2021/08/12 05:35:35;;;;;;;1.40;0.90;;;;;;;18.85;66.36;99615.49;1724726;81;21132;-61
2021/08/12 05:38:04;;;;;;;1.20;0.90;;;;;;;18.87;66.03;99605.33;1698220;83;21642;-61
2021/08/12 05:40:32;;;;;;;2.45;0.80;;;;;;;18.90;65.95;99600.96;1668433;84;21523;-62
2021/08/12 05:42:59;;;;;;;1.10;0.70;;;;;;;18.96;65.83;99606.41;1685033;83;21506;-59
2021/08/12 05:45:26;;;;;;;1.87;0.60;;;;;;;19.04;65.90;99599.80;1684973;83;21601;-58
2021/08/12 05:47:53;;;;;;;1.27;0.98;;;;;;;19.13;65.55;99593.56;1677454;83;22269;-58
2021/08/12 05:50:21;;;;;;;1.27;0.80;;;;;;;19.23;64.87;99597.20;1687894;83;21088;-59
2021/08/12 05:52:47;;;;;;;1.00;0.80;;;;;;;19.34;64.49;99590.83;1679436;83;21132;-57
2021/08/12 05:55:15;;;;;;;1.00;0.90;;;;;;;19.40;63.60;99588.42;1685955;83;21119;-58
2021/08/12 05:57:42;;;;;;;1.25;0.80;;;;;;;19.43;63.33;99603.17;1647929;84;21149;-57
2021/08/12 06:00:10;;;;;;;2.80;0.80;;;;;;;19.47;62.73;99586.95;1666625;83;20969;-59
2021/08/12 06:02:38;;;;;;;5.55;0.80;;;;;;;19.50;62.60;99590.75;1664727;84;21109;-58
2021/08/12 06:05:05;;;;;;;1.35;0.90;;;;;;;19.55;62.60;99593.96;1671408;83;21387;-59
2021/08/12 06:07:33;;;;;;;1.25;0.75;;;;;;;19.59;62.33;99588.58;1646063;84;21623;-57
2021/08/12 06:10:00;;;;;;;1.02;0.70;;;;;;;19.65;62.13;99592.13;1664247;84;21073;-57
2021/08/12 06:12:26;;;;;;;1.05;0.70;;;;;;;19.72;61.89;99602.53;1662453;84;21209;-56
2021/08/12 06:14:54;;;;;;;1.20;0.62;;;;;;;19.75;60.73;99595.41;1704931;81;21061;-59
2021/08/12 06:17:22;;;;;;;1.20;0.70;;;;;;;19.77;60.39;99602.48;1707881;81;21150;-59
2021/08/12 06:19:50;;;;;;;1.72;0.70;;;;;;;19.81;60.80;99604.45;1696386;82;21051;-61
2021/08/12 06:22:19;;;;;;;0.80;0.70;;;;;;;19.85;60.39;99608.62;1692227;81;21054;-59
2021/08/12 06:24:46;;;;;;;0.88;0.70;;;;;;;19.87;60.04;99605.27;1669967;84;21893;-62
2021/08/12 06:27:12;;;;;;;0.80;0.70;;;;;;;19.89;59.69;99610.09;1655429;83;20969;-58
2021/08/12 06:29:40;;;;;;;0.85;0.68;;;;;;;19.91;59.23;99613.53;1673815;84;21316;-60
2021/08/12 06:32:08;;;;;;;1.85;0.70;;;;;;;19.91;59.10;99618.99;1673469;83;20951;-62
2021/08/12 06:34:34;;;;;;;0.80;0.80;;;;;;;19.91;59.44;99610.80;1673969;84;21060;-57
2021/08/12 06:37:00;;;;;;;0.60;0.60;;;;;;;19.94;59.78;99625.56;1680154;83;22097;-61
2021/08/12 06:39:27;;;;;;;0.75;0.70;;;;;;;19.99;59.26;99620.04;1686316;83;21233;-60
2021/08/12 06:41:54;;;;;;;1.00;0.70;;;;;;;20.05;59.62;99613.69;1712688;81;21289;-61
2021/08/12 06:44:23;;;;;;;1.85;0.80;;;;;;;20.11;59.66;99618.59;1709558;81;20982;-59
2021/08/12 06:46:50;;;;;;;0.62;0.53;;;;;;;20.17;59.39;99618.90;1713635;81;20985;-60
2021/08/12 06:49:16;;;;;;;0.65;0.60;;;;;;;20.21;58.62;99616.77;1644927;84;21776;-60
2021/08/12 06:51:44;;;;;;;0.80;0.70;;;;;;;20.24;58.20;99614.64;1713669;81;20954;-60
2021/08/12 06:54:11;;;;;;;0.80;0.50;;;;;;;20.27;57.94;99621.67;1715639;81;20946;-57
2021/08/12 06:56:38;;;;;;;0.70;0.70;;;;;;;20.30;57.59;99621.41;1712374;81;20915;-60
2021/08/12 06:59:04;;;;;;;0.80;0.70;;;;;;;20.32;57.63;99620.27;1711940;81;21437;-60
2021/08/12 07:01:32;;;;;;;2.77;0.65;;;;;;;20.37;57.93;99629.44;1672578;83;20926;-58
2021/08/12 07:03:59;;;;;;;0.70;0.60;;;;;;;20.41;57.48;99623.21;1672587;83;20982;-61
2021/08/12 07:06:25;;;;;;;3.77;0.68;;;;;;;20.46;57.58;99624.51;1719345;81;20911;-57
2021/08/12 07:08:54;;;;;;;0.80;0.70;;;;;;;20.51;57.23;99628.17;1717035;81;20942;-58
2021/08/12 07:11:23;;;;;;;0.78;0.68;;;;;;;20.57;57.13;99618.94;1691590;81;20947;-57
2021/08/12 07:13:50;;;;;;;1.42;1.05;;;;;;;20.65;56.83;99629.17;1712968;81;21092;-58
2021/08/12 07:16:17;;;;;;;0.80;0.60;;;;;;;20.69;56.84;99628.73;1702228;81;21022;-59
2021/08/12 07:18:47;;;;;;;0.93;0.60;;;;;;;20.75;55.64;99632.30;1679980;83;20935;-59
2021/08/12 07:21:15;;;;;;;1.37;0.50;;;;;;;20.77;55.28;99628.89;1661916;84;21006;-60
2021/08/12 07:23:42;;;;;;;0.93;0.60;;;;;;;20.81;55.14;99625.88;1664106;84;20947;-59
2021/08/12 07:26:14;;;;;;;0.90;0.60;;;;;;;20.85;55.01;99637.75;1658662;84;20939;-59
2021/08/12 07:28:41;;;;;;;1.25;0.55;;;;;;;20.90;54.73;99636.84;1659015;84;21129;-57
2021/08/12 07:31:08;;;;;;;0.60;0.60;;;;;;;20.92;54.69;99638.94;1663207;83;21078;-62
2021/08/12 07:33:35;;;;;;;0.80;0.60;;;;;;;20.98;54.85;99628.78;1661731;83;21900;-60
2021/08/12 07:36:02;;;;;;;0.80;0.60;;;;;;;21.03;53.84;99638.78;1669102;83;21585;-60
2021/08/12 07:38:29;;;;;;;3.85;0.65;;;;;;;21.06;53.90;99639.88;1664051;83;21559;-58
2021/08/12 07:40:58;;;;;;;1.22;0.65;;;;;;;21.07;54.00;99634.77;1667824;83;21082;-58
2021/08/12 07:43:25;;;;;;;0.70;0.60;;;;;;;21.11;54.04;99642.17;1668934;83;20946;-60
2021/08/12 07:45:51;;;;;;;2.95;0.70;;;;;;;21.14;53.87;99631.81;1667998;83;20959;-60
2021/08/12 07:48:18;;;;;;;0.70;0.70;;;;;;;21.18;53.92;99635.67;1666932;83;21012;-63
2021/08/12 07:50:45;;;;;;;1.85;0.60;;;;;;;21.26;53.70;99631.71;1666728;83;21175;-57
2021/08/12 07:53:11;;;;;;;2.58;0.60;;;;;;;21.34;53.83;99634.59;1670261;83;21672;-62
2021/08/12 07:55:39;;;;;;;1.00;0.90;;;;;;;21.42;53.77;99631.98;1668288;83;21536;-61
2021/08/12 07:58:05;;;;;;;0.93;0.70;;;;;;;21.51;53.66;99639.33;1666184;83;22047;-60
2021/08/12 08:00:33;;;;;;;0.95;0.80;;;;;;;21.62;53.16;99636.91;1663878;83;21535;-58
2021/08/12 08:03:00;;;;;;;1.32;0.78;;;;;;;21.70;52.53;99641.14;1672804;83;21701;-60
2021/08/12 08:05:26;;;;;;;0.80;0.70;;;;;;;21.75;51.49;99635.60;1665080;83;21747;-56
2021/08/12 08:07:54;;;;;;;0.60;0.60;;;;;;;21.80;51.41;99632.41;1650084;84;21568;-57
2021/08/12 08:10:24;;;;;;;0.70;0.70;;;;;;;21.83;51.53;99633.48;1648440;84;21472;-61
2021/08/12 08:12:50;;;;;;;0.60;0.55;;;;;;;21.88;51.53;99636.64;1650963;84;21134;-57
2021/08/12 08:15:18;;;;;;;1.55;0.70;;;;;;;21.93;51.42;99641.69;1663480;83;21089;-63
2021/08/12 08:17:44;;;;;;;0.72;0.57;;;;;;;21.97;50.77;99645.38;1697494;82;21066;-61
2021/08/12 08:20:13;;;;;;;0.68;0.55;;;;;;;22.01;50.36;99647.33;1708732;81;21461;-60
2021/08/12 08:22:39;;;;;;;3.25;0.60;;;;;;;22.06;50.47;99644.98;1698150;82;21050;-61
2021/08/12 08:25:08;;;;;;;0.60;0.47;;;;;;;22.12;50.02;99641.13;1704468;82;21074;-63
2021/08/12 08:27:34;;;;;;;0.70;0.50;;;;;;;22.14;49.87;99643.73;1676144;83;21132;-61
2021/08/12 08:30:02;;;;;;;1.35;0.50;;;;;;;22.16;49.76;99643.95;1699268;82;21621;-62
2021/08/12 08:32:28;;;;;;;0.57;0.50;;;;;;;22.20;49.84;99640.41;1712373;82;20970;-60
2021/08/12 08:34:56;;;;;;;0.50;0.40;;;;;;;22.25;49.68;99639.44;1696469;82;21658;-61
2021/08/12 08:37:23;;;;;;;1.55;0.40;;;;;;;22.29;48.89;99635.90;1697322;82;22064;-61
2021/08/12 08:39:50;;;;;;;0.60;0.50;;;;;;;22.28;48.91;99640.52;1695306;82;21937;-62
2021/08/12 08:42:17;;;;;;;1.55;0.40;;;;;;;22.33;49.07;99650.52;1702342;82;21026;-59
2021/08/12 08:44:45;;;;;;;1.17;0.50;;;;;;;22.36;48.57;99637.88;1700495;82;21079;-60
2021/08/12 08:47:14;;;;;;;2.83;0.45;;;;;;;22.37;48.91;99638.20;1697415;82;21409;-59
2021/08/12 08:49:42;;;;;;;0.85;0.55;;;;;;;22.43;48.17;99644.98;1697010;82;21092;-60
2021/08/12 08:52:09;;;;;;;0.75;0.40;;;;;;;22.47;48.32;99649.14;1663745;83;22082;-61
2021/08/12 08:54:38;;;;;;;1.25;0.47;;;;;;;22.51;47.69;99651.44;1699529;82;21125;-63
2021/08/12 08:57:06;;;;;;;1.27;0.50;;;;;;;22.55;47.65;99647.36;1693557;82;21014;-61
2021/08/12 08:59:36;;;;;;;1.67;0.60;;;;;;;22.57;47.60;99649.95;1698438;82;21887;-59
2021/08/12 09:02:06;;;;;;;0.90;0.40;;;;;;;22.59;47.79;99652.05;1663294;83;21124;-62
2021/08/12 09:04:36;;;;;;;1.07;0.50;;;;;;;22.63;47.49;99650.70;1662584;83;21338;-57
2021/08/12 09:07:10;;;;;;;0.93;0.50;;;;;;;22.69;47.33;99656.97;1668511;83;21080;-60
2021/08/12 09:09:37;;;;;;;1.87;0.60;;;;;;;22.73;46.54;99644.66;1644761;84;21070;-57
2021/08/12 09:12:05;;;;;;;0.78;0.60;;;;;;;22.71;45.71;99657.70;1647931;84;21727;-59
2021/08/12 09:14:40;;;;;;;2.83;0.53;;;;;;;22.68;46.37;99659.87;1656947;84;21675;-61
2021/08/12 09:17:24;;;;;;;3.00;0.60;;;;;;;22.69;46.26;99656.97;1666236;83;21072;-60
2021/08/12 09:20:04;;;;;;;0.90;0.60;;;;;;;22.73;46.08;99663.87;1694601;82;25637;-60
2021/08/12 09:22:51;;;;;;;2.27;0.68;;;;;;;22.80;46.06;99662.27;1701812;82;21020;-63
2021/08/12 09:25:40;;;;;;;0.70;0.60;;;;;;;22.85;46.03;99653.59;1707421;82;21062;-58
2021/08/12 09:28:29;;;;;;;2.62;0.53;;;;;;;22.91;45.46;99657.08;1662959;83;21105;-60
2021/08/12 09:31:03;;;;;;;2.75;0.50;;;;;;;22.97;45.24;99653.70;1698937;82;21928;-60
2021/08/12 09:33:36;;;;;;;0.90;0.70;;;;;;;23.01;44.75;99656.00;1702502;82;21543;-59
2021/08/12 09:36:20;;;;;;;0.88;0.70;;;;;;;23.04;44.66;99658.09;1664364;83;21541;-59
2021/08/12 09:39:07;;;;;;;0.90;0.80;;;;;;;23.08;44.37;99653.48;1697918;82;21471;-58
2021/08/12 09:41:45;;;;;;;1.55;0.70;;;;;;;23.12;44.88;99653.55;1703072;82;21414;-57
2021/08/12 09:44:51;;;;;;;2.72;0.70;;;;;;;23.17;43.57;99653.06;1703881;82;21747;-60
2021/08/12 09:47:28;;;;;;;0.95;0.70;;;;;;;23.21;43.92;99652.61;1696957;82;20903;-58
2021/08/12 09:49:59;;;;;;;1.15;0.70;;;;;;;23.28;43.97;99654.20;1705552;82;20968;-58
2021/08/12 09:52:33;;;;;;;0.90;0.70;;;;;;;23.33;43.71;99641.72;1712206;82;22165;-60
2021/08/12 09:55:16;;;;;;;2.15;0.60;;;;;;;23.43;43.12;99655.88;1704386;82;20937;-59
2021/08/12 09:57:47;;;;;;;1.00;0.70;;;;;;;23.47;43.06;99651.81;1697976;82;21165;-59
2021/08/12 10:00:31;;;;;;;5.42;0.80;;;;;;;23.52;42.94;99644.84;1700771;82;20973;-58
2021/08/12 10:02:59;;;;;;;2.25;0.75;;;;;;;23.59;42.90;99644.55;1704543;82;20919;-61
2021/08/12 10:05:27;;;;;;;0.70;0.50;;;;;;;23.67;43.15;99647.88;1664411;83;21504;-57
2021/08/12 10:07:55;;;;;;;1.05;0.90;;;;;;;23.75;43.04;99649.31;1707611;81;20940;-59
2021/08/12 10:10:27;;;;;;;1.72;0.90;;;;;;;23.83;41.87;99642.50;1677255;83;21515;-58
2021/08/12 10:12:58;;;;;;;1.32;0.80;;;;;;;23.86;41.98;99644.94;1672309;83;21494;-56
2021/08/12 10:15:31;;;;;;;0.93;0.70;;;;;;;23.88;42.32;99644.27;1710317;81;21029;-62
2021/08/12 10:18:01;;;;;;;0.72;0.60;;;;;;;23.92;42.13;99638.78;1705689;81;21018;-59
2021/08/12 10:20:33;;;;;;;1.95;0.90;;;;;;;23.97;41.42;99652.92;1714489;81;21496;-59
2021/08/12 10:23:04;;;;;;;4.22;1.20;;;;;;;23.98;41.23;99649.16;1711278;81;21122;-61
2021/08/12 10:25:34;;;;;;;0.80;0.68;;;;;;;23.98;41.78;99655.16;1708785;81;21265;-60
2021/08/12 10:28:02;;;;;;;1.42;0.80;;;;;;;23.99;41.41;99645.35;1709042;81;20918;-59
2021/08/12 10:30:28;;;;;;;1.60;0.70;;;;;;;24.02;42.41;99642.80;1712052;81;20977;-61
2021/08/12 10:32:59;;;;;;;2.25;0.70;;;;;;;24.09;42.06;99644.73;1709125;81;21065;-57
2021/08/12 10:35:32;;;;;;;1.75;0.78;;;;;;;24.19;41.75;99652.01;1704629;81;21796;-56
2021/08/12 10:37:59;;;;;;;1.40;0.82;;;;;;;24.20;41.26;99645.48;1704342;81;21292;-59
2021/08/12 10:40:29;;;;;;;0.90;0.78;;;;;;;24.19;41.50;99645.13;1707762;81;21112;-57
2021/08/12 10:42:58;;;;;;;2.85;0.80;;;;;;;24.23;41.14;99652.08;1704968;81;21130;-57
2021/08/12 10:45:27;;;;;;;2.50;1.00;;;;;;;24.24;40.46;99662.92;1705871;81;21505;-62
2021/08/12 10:47:55;;;;;;;1.50;0.68;;;;;;;24.23;40.36;99653.45;1704609;81;21231;-57
2021/08/12 10:50:27;;;;;;;2.62;0.70;;;;;;;24.24;40.47;99653.81;1703038;81;21030;-58
2021/08/12 10:53:14;;;;;;;2.83;0.70;;;;;;;24.21;40.16;99649.48;1706617;81;20991;-59
2021/08/12 10:55:52;;;;;;;0.88;0.75;;;;;;;24.20;40.44;99653.73;1709140;81;20954;-58
2021/08/12 10:58:28;;;;;;;1.02;0.80;;;;;;;24.23;40.94;99658.95;1708212;81;21473;-58
2021/08/12 11:00:56;;;;;;;3.80;0.88;;;;;;;24.26;40.31;99666.86;1701558;81;22285;-59
2021/08/12 11:03:38;;;;;;;5.17;0.75;;;;;;;24.23;40.17;99658.95;1710478;81;20895;-59
2021/08/12 11:06:09;;;;;;;1.65;0.70;;;;;;;24.18;40.02;99659.91;1712419;81;21088;-60
2021/08/12 11:08:58;;;;;;;1.47;0.80;;;;;;;24.17;39.71;99659.05;1663515;83;21068;-58
2021/08/12 11:11:33;;;;;;;1.80;0.70;;;;;;;24.16;39.51;99668.31;1695740;82;21097;-63
2021/08/12 11:14:05;;;;;;;1.00;0.70;;;;;;;24.19;39.88;99664.38;1702715;82;20986;-59
2021/08/12 11:16:49;;;;;;;3.90;1.45;;;;;;;24.22;40.00;99652.59;1695552;82;21038;-58
2021/08/12 11:19:29;;;;;;;0.90;0.70;;;;;;;24.27;40.65;99650.72;1659985;83;21665;-60
2021/08/12 11:21:56;;;;;;;1.20;0.78;;;;;;;24.34;41.04;99647.14;1660989;84;21492;-58
2021/08/12 11:24:29;;;;;;;3.83;0.70;;;;;;;24.39;40.71;99643.91;1702616;82;21522;-61
2021/08/12 11:27:04;;;;;;;1.05;0.70;;;;;;;24.45;40.85;99648.75;1700265;82;21855;-64
2021/08/12 11:29:35;;;;;;;;;;;;;;;24.53;40.49;99663.91;1702021;82;21046;-57
2021/08/12 11:32:14;;;;;;;2.50;0.70;;;;;;;24.57;40.33;99656.20;1701138;82;20125;-58
2021/08/12 11:34:56;;;;;;;0.88;0.60;;;;;;;24.58;39.40;99657.42;1697867;82;21497;-63
2021/08/12 11:37:27;;;;;;;0.80;0.60;;;;;;;24.61;39.44;99664.46;1699475;82;21576;-60
2021/08/12 11:39:59;;;;;;;1.77;0.80;;;;;;;24.64;39.71;99664.14;1701365;82;21053;-61
2021/08/12 11:42:40;;;;;;;0.70;0.57;;;;;;;24.66;40.02;99662.95;1704806;82;21339;-59
2021/08/12 11:45:17;;;;;;;0.72;0.60;;;;;;;24.65;40.51;99671.38;1664531;83;21387;-60
2021/08/12 11:47:54;;;;;;;1.82;0.60;;;;;;;24.68;40.24;99671.89;1699694;82;22173;-57
2021/08/12 11:50:28;;;;;;;1.50;0.70;;;;;;;24.60;40.13;99681.48;1707976;82;20938;-59
2021/08/12 11:52:56;;;;;;;0.72;0.57;;;;;;;24.50;38.87;99683.49;1701012;82;21067;-59
2021/08/12 11:55:24;;;;;;;0.98;0.60;;;;;;;24.38;39.03;99683.45;1700965;82;21050;-59
2021/08/12 11:57:56;;;;;;;3.12;0.60;;;;;;;24.32;39.58;99679.47;1661813;84;22117;-60
2021/08/12 12:00:33;;;;;;;0.93;0.60;;;;;;;24.32;39.60;99686.35;1666767;84;21076;-61
2021/08/12 12:03:06;;;;;;;0.98;0.70;;;;;;;24.30;39.82;99685.64;1662331;83;21081;-59
2021/08/12 12:05:37;;;;;;;0.85;0.70;;;;;;;24.29;39.49;99694.05;1664370;83;21756;-58
2021/08/12 12:08:08;;;;;;;3.12;0.62;;;;;;;24.28;39.87;99686.82;1706151;81;21045;-62
2021/08/12 12:10:39;;;;;;;0.90;0.65;;;;;;;24.25;40.18;99686.63;1719087;81;21053;-61